Time;durP1;ratioP1;P1;durP2;ratioP2;P2;SDS_P1;SDS_P2;PMS_P1;PMS_P2;Temp;Humidity;BMP_temperature;BMP_pressure;BME280_temperature;BME280_humidity;BME280_pressure;Samples;Min_cycle;Max_cycle;Signal;HPM_P1;HPM_P2
2023/07/05 00:01:18;;;;;;;11.52;5.80;;;15.30;99.90;;;;;;5143331;27;20046;-64
2023/07/05 00:03:43;;;;;;;10.13;5.95;;;15.30;99.90;;;;;;5110095;28;20096;-64
2023/07/05 00:06:09;;;;;;;9.75;6.32;;;15.30;99.90;;;;;;5110710;28;20062;-64
2023/07/05 00:08:36;;;;;;;12.13;6.93;;;15.30;99.90;;;;;;5112783;28;20040;-64
2023/07/05 00:11:06;;;;;;;10.75;5.97;;;15.30;99.90;;;;;;5114108;28;20043;-63
2023/07/05 00:13:32;;;;;;;10.80;6.35;;;15.30;99.90;;;;;;5113887;28;20100;-64
2023/07/05 00:15:59;;;;;;;13.20;6.30;;;15.30;99.90;;;;;;5113923;28;20057;-64
2023/07/05 00:18:28;;;;;;;11.60;6.53;;;15.30;99.90;;;;;;5147257;27;20124;-63
2023/07/05 00:21:03;;;;;;;11.70;6.68;;;15.30;99.90;;;;;;5147020;27;20035;-63
2023/07/05 00:23:31;;;;;;;12.20;6.80;;;15.30;99.90;;;;;;5113752;28;20032;-63
2023/07/05 00:25:56;;;;;;;13.70;6.72;;;15.30;99.90;;;;;;5113820;28;20062;-63
2023/07/05 00:28:23;;;;;;;15.98;7.00;;;15.30;99.90;;;;;;5146636;27;20540;-63
2023/07/05 00:30:49;;;;;;;14.00;7.20;;;15.30;99.90;;;;;;5113670;28;20446;-63
2023/07/05 00:33:15;;;;;;;11.70;6.53;;;15.20;99.90;;;;;;5113528;28;20108;-64
2023/07/05 00:35:48;;;;;;;11.80;6.93;;;15.20;99.90;;;;;;5146948;27;20488;-64
2023/07/05 00:38:15;;;;;;;12.77;6.85;;;15.30;99.90;;;;;;5113517;28;20484;-63
2023/07/05 00:40:40;;;;;;;13.23;6.85;;;15.30;99.90;;;;;;5113611;28;20377;-63
2023/07/05 00:43:06;;;;;;;9.98;5.72;;;15.20;99.90;;;;;;5146437;27;20054;-63
2023/07/05 00:45:50;;;;;;;12.20;6.55;;;15.30;99.90;;;;;;5113772;28;20236;-63
2023/07/05 00:48:19;;;;;;;12.82;6.32;;;15.20;99.90;;;;;;5113538;28;20502;-63
2023/07/05 00:50:49;;;;;;;14.18;6.78;;;15.20;99.90;;;;;;5113387;28;20036;-63
2023/07/05 00:53:15;;;;;;;10.68;6.68;;;15.20;99.90;;;;;;5113043;28;20087;-63
2023/07/05 00:55:46;;;;;;;18.40;7.35;;;15.20;99.90;;;;;;5146100;27;20039;-63
2023/07/05 00:58:12;;;;;;;14.20;6.85;;;15.20;99.90;;;;;;5146047;27;20077;-63
2023/07/05 01:00:38;;;;;;;14.10;6.35;;;15.20;99.90;;;;;;5146113;27;20039;-63
2023/07/05 01:03:10;;;;;;;13.95;6.63;;;15.20;99.90;;;;;;5113226;28;20071;-63
2023/07/05 01:05:36;;;;;;;11.93;6.93;;;15.20;99.90;;;;;;5113030;28;20065;-63
2023/07/05 01:08:04;;;;;;;10.13;6.47;;;15.30;99.90;;;;;;5145940;27;20046;-63
2023/07/05 01:10:30;;;;;;;13.18;6.25;;;15.20;99.90;;;;;;5113091;28;20040;-64
2023/07/05 01:13:04;;;;;;;12.25;6.38;;;15.20;99.90;;;;;;5111425;28;20497;-63
2023/07/05 01:15:39;;;;;;;11.10;6.07;;;15.20;99.90;;;;;;5145844;27;20047;-64
2023/07/05 01:18:13;;;;;;;10.38;6.78;;;15.20;99.90;;;;;;5145309;27;20075;-64
2023/07/05 01:20:55;;;;;;;12.05;6.07;;;15.20;99.90;;;;;;5145619;27;20127;-63
2023/07/05 01:23:20;;;;;;;10.80;6.60;;;15.20;99.90;;;;;;5111374;28;20047;-64
2023/07/05 01:26:24;;;;;;;11.52;7.07;;;15.20;99.90;;;;;;5112483;28;20043;-64
2023/07/05 01:29:08;;;;;;;16.33;7.15;;;15.20;99.90;;;;;;5112423;28;20036;-64
2023/07/05 01:31:46;;;;;;;18.23;8.65;;;15.10;99.90;;;;;;5111467;28;20102;-64
2023/07/05 01:34:29;;;;;;;25.00;8.43;;;15.10;99.90;;;;;;5145392;27;20397;-64
2023/07/05 01:36:56;;;;;;;15.25;7.97;;;15.10;99.90;;;;;;5094484;28;20061;-65
2023/07/05 01:39:22;;;;;;;16.63;8.50;;;15.10;99.90;;;;;;5094078;28;20027;-65
2023/07/05 01:41:48;;;;;;;13.63;7.97;;;15.10;99.90;;;;;;5111005;28;20055;-65
2023/07/05 01:44:16;;;;;;;13.32;8.30;;;15.00;99.90;;;;;;5094130;28;20334;-65
2023/07/05 01:46:45;;;;;;;16.15;8.63;;;15.00;99.90;;;;;;5145374;27;20039;-65
2023/07/05 01:49:22;;;;;;;14.55;9.02;;;14.90;99.90;;;;;;5094043;28;20039;-65
2023/07/05 01:52:21;;;;;;;15.90;9.63;;;14.90;99.90;;;;;;5145177;27;20047;-65
2023/07/05 01:54:58;;;;;;;16.75;9.05;;;14.80;99.90;;;;;;5145444;27;20055;-65
2023/07/05 01:57:28;;;;;;;16.25;9.82;;;14.80;99.90;;;;;;5145128;27;20118;-66
2023/07/05 01:59:57;;;;;;;16.95;9.85;;;14.70;99.90;;;;;;5093412;28;20035;-65
2023/07/05 02:02:28;;;;;;;22.60;9.65;;;14.70;99.90;;;;;;5110590;28;20118;-65
2023/07/05 02:04:55;;;;;;;17.77;10.10;;;14.60;99.90;;;;;;5144979;27;20044;-65
2023/07/05 02:07:27;;;;;;;20.08;9.73;;;14.60;99.90;;;;;;5110443;28;20691;-65
2023/07/05 02:09:54;;;;;;;19.98;9.60;;;14.50;99.90;;;;;;5093433;28;20044;-65
2023/07/05 02:12:19;;;;;;;17.50;10.55;;;14.50;99.90;;;;;;5093573;28;20119;-65
2023/07/05 02:14:45;;;;;;;17.92;10.25;;;14.50;99.90;;;;;;5110221;28;20487;-66
2023/07/05 02:17:11;;;;;;;21.60;10.98;;;14.50;99.90;;;;;;5110485;28;20138;-65
2023/07/05 02:19:37;;;;;;;27.02;11.40;;;14.50;99.90;;;;;;5076834;28;20036;-65
2023/07/05 02:22:03;;;;;;;20.50;10.93;;;14.50;99.90;;;;;;5111553;28;20534;-65
2023/07/05 02:24:29;;;;;;;21.58;10.80;;;14.50;99.90;;;;;;5093172;28;20164;-66
2023/07/05 02:26:55;;;;;;;21.15;11.25;;;14.40;99.90;;;;;;5092998;28;20368;-66
2023/07/05 02:29:22;;;;;;;19.75;11.02;;;14.40;99.90;;;;;;5075448;28;20135;-66
2023/07/05 02:31:48;;;;;;;17.83;10.73;;;14.40;99.90;;;;;;5110369;28;20069;-65
2023/07/05 02:34:14;;;;;;;18.13;11.15;;;14.40;99.90;;;;;;5093533;28;20150;-65
2023/07/05 02:36:40;;;;;;;20.63;11.20;;;14.40;99.90;;;;;;5075955;28;20400;-65
2023/07/05 02:39:05;;;;;;;19.50;10.82;;;14.40;99.90;;;;;;5093364;28;20088;-65
2023/07/05 02:41:31;;;;;;;19.10;11.02;;;14.40;99.90;;;;;;5092795;28;20435;-65
2023/07/05 02:43:57;;;;;;;22.13;11.32;;;14.30;99.90;;;;;;5093008;28;20064;-65
2023/07/05 02:46:25;;;;;;;18.55;11.18;;;14.40;99.90;;;;;;5092908;28;20050;-65
2023/07/05 02:48:55;;;;;;;25.67;11.40;;;14.40;99.90;;;;;;5093154;28;20526;-66
2023/07/05 02:51:21;;;;;;;21.88;12.43;;;14.30;99.90;;;;;;5076585;28;20151;-65
2023/07/05 02:53:47;;;;;;;20.20;11.60;;;14.30;99.90;;;;;;5092669;28;20068;-65
2023/07/05 02:56:14;;;;;;;22.50;12.93;;;14.30;99.90;;;;;;5075811;28;20039;-66
2023/07/05 02:58:40;;;;;;;31.08;12.82;;;14.30;99.90;;;;;;5109567;28;20035;-66
2023/07/05 03:01:06;;;;;;;25.48;13.40;;;14.30;99.90;;;;;;5092696;28;20500;-65
2023/07/05 03:03:32;;;;;;;20.48;12.82;;;14.30;99.90;;;;;;5110970;27;20119;-65
2023/07/05 03:05:59;;;;;;;20.40;12.27;;;14.30;99.90;;;;;;5092585;28;20074;-66
2023/07/05 03:08:26;;;;;;;22.05;13.30;;;14.30;99.90;;;;;;5111259;28;20048;-65
2023/07/05 03:10:53;;;;;;;22.42;12.85;;;14.30;99.90;;;;;;5109338;28;20097;-65
2023/07/05 03:13:20;;;;;;;24.00;12.55;;;14.30;99.90;;;;;;5092367;28;20040;-65
2023/07/05 03:15:45;;;;;;;22.30;13.43;;;14.30;99.90;;;;;;5092469;28;20536;-65
2023/07/05 03:18:11;;;;;;;21.65;12.02;;;14.30;99.90;;;;;;5109545;28;20047;-65
2023/07/05 03:20:38;;;;;;;25.25;12.68;;;14.30;99.90;;;;;;5092295;28;20499;-65
2023/07/05 03:23:04;;;;;;;25.00;13.55;;;14.30;99.90;;;;;;5110992;28;20035;-65
2023/07/05 03:25:30;;;;;;;21.63;12.27;;;14.40;99.90;;;;;;5092303;28;20085;-65
2023/07/05 03:27:55;;;;;;;24.67;13.80;;;14.40;99.90;;;;;;5092239;28;20105;-65
2023/07/05 03:30:22;;;;;;;22.95;12.35;;;14.40;99.90;;;;;;5109429;28;20048;-65
2023/07/05 03:32:49;;;;;;;23.88;14.52;;;14.40;99.90;;;;;;5092164;28;20135;-65
2023/07/05 03:35:15;;;;;;;24.13;13.23;;;14.40;99.90;;;;;;5110578;28;20046;-65
2023/07/05 03:37:41;;;;;;;26.25;14.90;;;14.40;99.90;;;;;;5110404;28;20111;-65
2023/07/05 03:40:08;;;;;;;24.27;13.65;;;14.40;99.90;;;;;;5110516;28;20032;-65
2023/07/05 03:42:35;;;;;;;20.83;12.18;;;14.40;99.90;;;;;;5112942;28;20039;-65
2023/07/05 03:45:01;;;;;;;22.92;13.43;;;14.40;99.90;;;;;;5113193;28;20048;-65
2023/07/05 03:47:28;;;;;;;20.23;12.63;;;14.40;99.90;;;;;;5112874;28;20047;-65
2023/07/05 03:49:53;;;;;;;22.90;12.63;;;14.40;99.90;;;;;;5096091;28;20036;-65
2023/07/05 03:52:19;;;;;;;20.75;11.32;;;14.50;99.90;;;;;;5112702;28;20100;-65
2023/07/05 03:54:45;;;;;;;18.85;11.75;;;14.50;99.90;;;;;;5114289;28;20070;-66
2023/07/05 03:57:11;;;;;;;18.25;10.68;;;14.50;99.90;;;;;;5112745;28;20067;-65
2023/07/05 03:59:37;;;;;;;19.98;11.15;;;14.50;99.90;;;;;;5112575;28;20102;-65
2023/07/05 04:02:02;;;;;;;25.05;10.75;;;14.60;99.90;;;;;;5112402;28;20044;-65
2023/07/05 04:04:28;;;;;;;17.00;10.63;;;14.60;99.90;;;;;;5112836;28;20042;-65
2023/07/05 04:06:54;;;;;;;21.38;11.75;;;14.70;99.90;;;;;;5112663;28;20484;-65
2023/07/05 04:09:19;;;;;;;20.55;11.05;;;14.70;99.90;;;;;;5079063;28;20043;-65
2023/07/05 04:11:45;;;;;;;19.15;10.63;;;14.70;99.90;;;;;;5112423;28;20523;-65
2023/07/05 04:14:11;;;;;;;16.98;11.65;;;14.80;99.90;;;;;;5079036;28;20048;-65
2023/07/05 04:16:37;;;;;;;20.90;12.13;;;14.80;99.90;;;;;;5112443;28;20079;-65
2023/07/05 04:19:03;;;;;;;21.23;10.95;;;14.90;99.90;;;;;;5112416;28;20075;-65
2023/07/05 04:21:29;;;;;;;19.08;10.70;;;14.90;99.90;;;;;;5112469;28;20036;-66
2023/07/05 04:23:55;;;;;;;17.88;11.38;;;14.90;99.90;;;;;;5095741;28;20071;-65
2023/07/05 04:26:23;;;;;;;16.45;11.55;;;14.90;99.90;;;;;;5112465;28;20577;-65
2023/07/05 04:28:49;;;;;;;18.00;9.85;;;14.90;99.90;;;;;;5112128;28;20054;-65
2023/07/05 04:31:19;;;;;;;14.07;9.73;;;15.00;99.90;;;;;;5113658;28;20489;-66
2023/07/05 04:33:45;;;;;;;16.08;9.65;;;15.00;99.90;;;;;;5146519;27;20122;-65
2023/07/05 04:36:11;;;;;;;14.68;8.75;;;15.00;99.90;;;;;;5146690;27;20100;-65
2023/07/05 04:38:37;;;;;;;13.35;9.00;;;15.00;99.90;;;;;;5112270;28;20202;-65
2023/07/05 04:41:03;;;;;;;19.23;9.00;;;15.00;99.90;;;;;;5146813;27;20484;-65
2023/07/05 04:43:29;;;;;;;17.85;7.97;;;15.00;99.90;;;;;;5146386;27;20039;-65
2023/07/05 04:45:57;;;;;;;12.40;7.70;;;15.00;99.90;;;;;;5078782;28;20074;-65
2023/07/05 04:48:24;;;;;;;11.18;7.72;;;15.00;99.90;;;;;;5146486;27;20528;-66
2023/07/05 04:50:52;;;;;;;11.57;6.85;;;15.00;99.90;;;;;;5146917;27;20047;-65
2023/07/05 04:53:22;;;;;;;13.25;6.35;;;15.00;99.90;;;;;;5093625;28;20474;-65
2023/07/05 04:55:51;;;;;;;8.80;5.28;;;15.00;99.90;;;;;;5146738;27;20121;-65
2023/07/05 04:58:18;;;;;;;8.63;4.95;;;15.00;99.90;;;;;;5145899;27;20043;-65
2023/07/05 05:00:46;;;;;;;7.68;4.43;;;14.90;99.90;;;;;;5146620;27;20040;-66
2023/07/05 05:03:16;;;;;;;6.45;4.32;;;14.80;99.90;;;;;;5112269;28;20512;-64
2023/07/05 05:05:43;;;;;;;10.13;4.80;;;14.70;99.90;;;;;;5111949;28;20036;-65
2023/07/05 05:08:10;;;;;;;6.22;4.45;;;14.60;99.90;;;;;;5113299;28;20100;-65
2023/07/05 05:10:37;;;;;;;7.28;4.50;;;14.40;99.90;;;;;;5146393;27;20054;-66
2023/07/05 05:13:03;;;;;;;7.85;5.40;;;14.30;99.90;;;;;;5112938;28;20097;-65
2023/07/05 05:15:41;;;;;;;8.13;5.13;;;14.10;99.90;;;;;;5128680;27;20485;-65
2023/07/05 05:18:08;;;;;;;6.68;4.93;;;13.90;99.90;;;;;;5145756;27;20073;-65
2023/07/05 05:20:37;;;;;;;8.15;4.88;;;13.80;99.90;;;;;;5113164;27;20131;-65
2023/07/05 05:23:03;;;;;;;8.90;5.50;;;13.60;99.90;;;;;;5094249;28;20069;-65
2023/07/05 05:25:28;;;;;;;6.75;4.95;;;13.50;99.90;;;;;;5145973;27;20039;-65
2023/07/05 05:27:54;;;;;;;7.60;4.97;;;13.40;99.90;;;;;;5093995;28;20460;-65
2023/07/05 05:30:20;;;;;;;8.88;5.30;;;13.40;99.90;;;;;;5112526;28;20040;-65
2023/07/05 05:32:47;;;;;;;10.75;6.28;;;13.40;99.90;;;;;;5094347;28;20549;-65
2023/07/05 05:35:14;;;;;;;7.45;5.05;;;13.40;99.90;;;;;;5094667;28;20036;-64
2023/07/05 05:37:40;;;;;;;6.63;4.78;;;13.30;99.90;;;;;;5112234;28;20078;-64
2023/07/05 05:40:08;;;;;;;6.75;4.57;;;13.30;99.90;;;;;;5145522;27;20042;-65
2023/07/05 05:42:33;;;;;;;7.97;4.55;;;13.30;99.90;;;;;;5145457;27;20512;-65
2023/07/05 05:44:59;;;;;;;5.95;4.63;;;13.30;99.90;;;;;;5111004;28;20074;-64
2023/07/05 05:47:25;;;;;;;6.45;4.50;;;13.40;99.90;;;;;;5112104;28;20132;-65
2023/07/05 05:49:51;;;;;;;6.57;4.00;;;13.40;99.90;;;;;;5110937;28;20435;-65
2023/07/05 05:52:16;;;;;;;6.03;4.00;;;13.50;99.90;;;;;;5093803;28;20044;-65
2023/07/05 05:54:42;;;;;;;5.55;4.57;;;13.50;99.90;;;;;;5128152;27;20564;-64
2023/07/05 05:57:08;;;;;;;6.95;4.43;;;13.50;99.90;;;;;;5127950;27;20078;-65
2023/07/05 05:59:34;;;;;;;7.10;4.55;;;13.50;99.90;;;;;;5111620;28;20080;-65
2023/07/05 06:02:00;;;;;;;7.75;4.40;;;13.50;99.90;;;;;;5093511;28;20036;-65
2023/07/05 06:04:26;;;;;;;6.00;4.57;;;13.60;99.90;;;;;;5093498;28;20046;-65
2023/07/05 06:06:52;;;;;;;6.75;3.80;;;13.60;99.90;;;;;;5145108;27;20062;-65
2023/07/05 06:09:18;;;;;;;8.82;4.45;;;13.60;99.90;;;;;;5145223;27;20504;-65
2023/07/05 06:11:43;;;;;;;5.85;4.07;;;13.60;99.90;;;;;;5110698;28;20039;-65
2023/07/05 06:14:09;;;;;;;7.28;3.80;;;13.60;99.90;;;;;;5127458;27;20481;-64
2023/07/05 06:16:35;;;;;;;6.03;3.85;;;13.60;99.90;;;;;;5111692;28;20036;-64
2023/07/05 06:19:01;;;;;;;15.73;4.40;;;13.70;99.90;;;;;;5111957;28;20496;-65
2023/07/05 06:21:26;;;;;;;9.10;4.63;;;13.70;99.90;;;;;;5110502;28;20365;-65
2023/07/05 06:23:52;;;;;;;6.60;4.13;;;13.70;99.90;;;;;;5093529;28;20485;-65
2023/07/05 06:26:19;;;;;;;5.07;3.83;;;13.70;99.90;;;;;;5144464;27;20378;-65
2023/07/05 06:28:46;;;;;;;7.30;4.00;;;13.60;99.90;;;;;;5144135;27;20050;-65
2023/07/05 06:31:12;;;;;;;6.72;4.57;;;13.70;99.90;;;;;;5144646;27;20048;-65
2023/07/05 06:33:39;;;;;;;8.18;4.40;;;13.70;99.90;;;;;;5111518;28;20036;-65
2023/07/05 06:36:06;;;;;;;4.30;3.53;;;13.80;99.90;;;;;;5144595;27;20031;-66
2023/07/05 06:38:32;;;;;;;7.30;4.15;;;13.90;99.90;;;;;;5144345;27;20036;-65
2023/07/05 06:40:58;;;;;;;7.18;4.53;;;14.00;99.90;;;;;;5111513;28;20122;-65
2023/07/05 06:43:25;;;;;;;7.05;4.38;;;14.10;99.90;;;;;;5144624;27;20131;-65
2023/07/05 06:45:53;;;;;;;9.05;4.28;;;14.20;99.90;;;;;;5109775;28;20088;-65
2023/07/05 06:48:19;;;;;;;7.93;4.00;;;14.20;99.90;;;;;;5111366;28;20082;-65
2023/07/05 06:50:53;;;;;;;9.32;4.88;;;14.20;99.90;;;;;;5144042;27;20039;-64
2023/07/05 06:53:19;;;;;;;4.90;3.78;;;14.30;99.90;;;;;;5092623;28;20059;-65
2023/07/05 06:55:49;;;;;;;5.38;3.40;;;14.30;99.90;;;;;;5110925;28;20082;-65
2023/07/05 06:58:19;;;;;;;8.10;4.00;;;14.30;99.90;;;;;;5144311;27;20069;-65
2023/07/05 07:00:46;;;;;;;7.22;3.63;;;14.30;99.90;;;;;;5110900;28;20541;-65
2023/07/05 07:03:12;;;;;;;5.95;3.95;;;14.40;99.90;;;;;;5144007;27;20096;-65
2023/07/05 07:05:38;;;;;;;9.65;3.75;;;14.40;99.90;;;;;;5143962;27;20043;-65
2023/07/05 07:08:04;;;;;;;6.20;3.05;;;14.40;99.90;;;;;;5144225;27;20039;-64
2023/07/05 07:10:29;;;;;;;6.82;3.08;;;14.40;99.90;;;;;;5110809;28;20493;-64
2023/07/05 07:12:55;;;;;;;7.43;4.07;;;14.40;99.90;;;;;;5109466;28;20051;-65
2023/07/05 07:15:21;;;;;;;6.72;3.92;;;14.30;99.90;;;;;;5092211;28;20507;-65
2023/07/05 07:17:47;;;;;;;5.85;3.92;;;14.30;99.90;;;;;;5110867;28;20043;-65
2023/07/05 07:20:14;;;;;;;9.38;4.07;;;14.20;99.90;;;;;;5092358;28;20111;-65
2023/07/05 07:22:40;;;;;;;7.85;3.58;;;14.20;99.90;;;;;;5143776;27;20051;-65
2023/07/05 07:25:07;;;;;;;5.63;3.40;;;14.30;99.90;;;;;;5092491;28;20036;-64
2023/07/05 07:27:33;;;;;;;9.30;3.38;;;14.30;99.90;;;;;;5143972;27;20055;-65
2023/07/05 07:29:59;;;;;;;10.43;3.97;;;14.30;99.90;;;;;;5110490;28;20542;-65
2023/07/05 07:32:24;;;;;;;6.80;3.75;;;14.30;99.90;;;;;;5092484;28;20038;-65
2023/07/05 07:34:55;;;;;;;7.93;3.28;;;14.40;99.90;;;;;;5110565;28;20488;-65
2023/07/05 07:37:20;;;;;;;6.13;3.20;;;14.40;99.90;;;;;;5110494;28;20059;-65
2023/07/05 07:39:46;;;;;;;5.07;3.65;;;14.50;99.90;;;;;;5092446;28;20132;-65
2023/07/05 07:42:12;;;;;;;6.65;3.55;;;14.50;99.90;;;;;;5092147;28;20050;-65
2023/07/05 07:44:38;;;;;;;5.28;3.40;;;14.50;99.90;;;;;;5110615;28;20047;-65
2023/07/05 07:47:04;;;;;;;5.25;2.90;;;14.50;99.90;;;;;;5143631;27;20489;-65
2023/07/05 07:49:30;;;;;;;7.97;4.00;;;14.50;99.90;;;;;;5143367;27;20043;-65
2023/07/05 07:51:56;;;;;;;5.50;3.08;;;14.50;99.90;;;;;;5091883;28;20058;-65
2023/07/05 07:54:26;;;;;;;6.78;3.20;;;14.50;99.90;;;;;;5092699;28;20055;-65
2023/07/05 07:56:53;;;;;;;4.50;2.83;;;14.50;99.90;;;;;;5109233;28;20044;-65
2023/07/05 07:59:19;;;;;;;7.55;3.42;;;14.40;99.90;;;;;;5092182;28;20043;-64
2023/07/05 08:01:45;;;;;;;3.72;2.67;;;14.20;99.90;;;;;;5109081;28;20039;-64
2023/07/05 08:04:12;;;;;;;4.70;2.78;;;14.00;99.90;;;;;;5092582;28;20486;-65
2023/07/05 08:06:41;;;;;;;5.47;3.47;;;13.90;99.90;;;;;;5092199;28;20476;-65
2023/07/05 08:09:10;;;;;;;5.60;3.00;;;13.70;99.90;;;;;;5143721;27;20463;-65
2023/07/05 08:11:36;;;;;;;5.00;2.85;;;13.70;99.90;;;;;;5092116;28;20062;-64
2023/07/05 08:14:02;;;;;;;4.57;2.33;;;13.70;99.90;;;;;;5108978;28;20035;-66
2023/07/05 08:16:28;;;;;;;2.38;1.95;;;13.60;99.90;;;;;;5091904;28;20083;-66
2023/07/05 08:18:54;;;;;;;5.40;1.83;;;13.40;99.90;;;;;;5092228;28;20027;-66
2023/07/05 08:21:20;;;;;;;3.53;1.90;;;13.30;99.90;;;;;;5091869;28;20429;-67
2023/07/05 08:23:45;;;;;;;3.22;2.03;;;13.30;99.90;;;;;;5092000;28;20320;-67
2023/07/05 08:26:12;;;;;;;2.80;1.65;;;13.30;99.90;;;;;;5143316;27;20082;-65
2023/07/05 08:28:38;;;;;;;3.30;1.75;;;13.20;99.90;;;;;;5093859;28;20565;-67
2023/07/05 08:31:06;;;;;;;5.47;1.90;;;13.10;99.90;;;;;;5095745;28;20043;-67
2023/07/05 08:33:33;;;;;;;3.28;1.60;;;13.10;99.90;;;;;;5095533;28;20401;-67
2023/07/05 08:36:28;;;;;;;3.88;1.75;;;12.90;99.90;;;;;;5078706;28;20052;-67
2023/07/05 08:38:57;;;;;;;3.63;1.80;;;12.90;99.90;;;;;;5106765;28;20516;-66
2023/07/05 08:41:41;;;;;;;2.03;1.60;;;12.80;99.90;;;;;;5078888;28;20035;-67
2023/07/05 08:44:24;;;;;;;2.95;1.90;;;12.70;99.90;;;;;;5113494;28;20043;-67
2023/07/05 08:47:01;;;;;;;2.83;1.88;;;12.70;99.90;;;;;;5146619;27;20500;-67
2023/07/05 08:49:37;;;;;;;2.65;1.75;;;12.60;99.90;;;;;;5146910;27;20039;-67
2023/07/05 08:52:04;;;;;;;3.33;1.60;;;12.50;99.90;;;;;;5113224;28;20078;-65
2023/07/05 08:54:33;;;;;;;3.05;1.70;;;12.50;99.90;;;;;;5146857;27;20373;-68
2023/07/05 08:57:05;;;;;;;4.03;1.73;;;12.50;99.90;;;;;;5129267;27;20047;-66
2023/07/05 08:59:51;;;;;;;3.40;2.20;;;12.50;99.90;;;;;;5112956;28;20085;-67
2023/07/05 09:02:22;;;;;;;5.15;2.17;;;12.50;99.90;;;;;;5146448;27;20239;-66
2023/07/05 09:04:49;;;;;;;2.90;1.70;;;12.40;99.90;;;;;;5146907;27;20040;-66
2023/07/05 09:07:40;;;;;;;4.47;2.10;;;12.40;99.90;;;;;;5111711;28;20044;-66
2023/07/05 09:10:21;;;;;;;2.45;1.92;;;12.40;99.90;;;;;;5095037;28;20047;-66
2023/07/05 09:13:02;;;;;;;3.95;2.13;;;12.40;99.90;;;;;;5094338;28;20046;-65
2023/07/05 09:15:45;;;;;;;6.28;2.15;;;12.40;99.90;;;;;;5146351;27;20040;-66
2023/07/05 09:18:19;;;;;;;;;;;12.30;99.90;;;;;;5146274;27;20040;-65
2023/07/05 09:21:08;;;;;;;3.13;2.40;;;12.30;99.90;;;;;;5094417;28;20415;-66
2023/07/05 09:23:53;;;;;;;4.65;2.00;;;12.20;99.90;;;;;;5094395;28;20167;-66
2023/07/05 09:27:09;;;;;;;5.85;2.70;;;12.10;99.90;;;;;;5146457;27;20580;-65
2023/07/05 09:29:38;;;;;;;5.40;2.40;;;12.10;99.90;;;;;;5124264;27;20106;-65
2023/07/05 09:32:12;;;;;;;7.28;2.55;;;12.00;99.90;;;;;;5145626;27;20623;-66
2023/07/05 09:34:40;;;;;;;7.50;2.97;;;11.90;99.90;;;;;;5145929;27;20160;-67
2023/07/05 09:37:31;;;;;;;5.57;2.70;;;11.90;99.90;;;;;;5094489;28;20035;-67
2023/07/05 09:40:11;;;;;;;6.75;2.88;;;11.80;99.90;;;;;;5144920;27;20310;-66
2023/07/05 09:42:54;;;;;;;4.93;2.80;;;11.80;99.90;;;;;;5094160;28;20432;-66
2023/07/05 09:45:20;;;;;;;6.25;3.08;;;11.80;99.90;;;;;;5112421;28;20040;-67
2023/07/05 09:47:50;;;;;;;7.38;3.15;;;11.80;99.90;;;;;;5093891;28;20107;-67
2023/07/05 09:50:20;;;;;;;8.65;2.75;;;11.80;99.90;;;;;;5145521;27;20044;-66
2023/07/05 09:52:58;;;;;;;7.30;2.95;;;11.80;99.90;;;;;;5145250;27;20052;-66
2023/07/05 09:55:28;;;;;;;6.75;2.80;;;11.90;99.90;;;;;;5094019;28;20036;-67
2023/07/05 09:57:54;;;;;;;7.70;3.70;;;11.90;99.90;;;;;;5093523;28;20067;-66
2023/07/05 10:00:31;;;;;;;10.02;2.65;;;11.90;99.90;;;;;;5145075;27;20092;-66
2023/07/05 10:03:09;;;;;;;7.75;2.78;;;11.90;99.90;;;;;;5144963;27;20484;-66
2023/07/05 10:05:35;;;;;;;6.90;2.38;;;11.90;99.90;;;;;;5111935;28;20412;-67
2023/07/05 10:08:04;;;;;;;7.55;3.00;;;12.00;99.90;;;;;;5110492;28;20039;-67
2023/07/05 10:10:40;;;;;;;7.55;2.95;;;12.00;99.90;;;;;;5110753;28;20039;-66
2023/07/05 10:13:16;;;;;;;7.63;2.88;;;12.00;99.90;;;;;;5145086;27;20035;-66
2023/07/05 10:15:50;;;;;;;10.43;3.47;;;12.00;99.90;;;;;;5145024;27;20047;-65
2023/07/05 10:18:30;;;;;;;7.90;3.20;;;12.00;99.90;;;;;;5093382;28;20039;-66
2023/07/05 10:20:58;;;;;;;10.27;3.67;;;12.00;99.90;;;;;;5093283;28;20046;-67
2023/07/05 10:23:25;;;;;;;9.68;3.15;;;12.00;99.90;;;;;;5127488;27;20522;-67
2023/07/05 10:25:53;;;;;;;8.68;3.53;;;12.00;99.90;;;;;;5093559;28;20127;-66
2023/07/05 10:28:28;;;;;;;8.25;3.08;;;12.00;99.90;;;;;;5144233;27;20047;-69
2023/07/05 10:30:56;;;;;;;10.70;3.03;;;12.00;99.90;;;;;;5144910;27;20039;-67
2023/07/05 10:33:28;;;;;;;8.75;3.28;;;12.00;99.90;;;;;;5144530;27;20467;-65
2023/07/05 10:36:02;;;;;;;15.35;3.50;;;12.00;99.90;;;;;;5144559;27;20043;-65
2023/07/05 10:38:31;;;;;;;11.32;3.45;;;12.00;99.90;;;;;;5144178;27;20104;-66
2023/07/05 10:41:19;;;;;;;8.85;3.40;;;12.00;99.90;;;;;;5093240;28;20086;-65
2023/07/05 10:44:10;;;;;;;9.38;3.10;;;12.00;99.90;;;;;;5100158;28;20579;-66
2023/07/05 10:46:37;;;;;;;8.55;2.85;;;12.00;99.90;;;;;;5144546;27;20039;-67
2023/07/05 10:49:11;;;;;;;9.18;2.90;;;12.00;99.90;;;;;;5144336;27;20130;-66
2023/07/05 10:51:40;;;;;;;5.88;2.97;;;11.90;99.90;;;;;;5110028;28;20077;-65
2023/07/05 10:54:26;;;;;;;7.13;2.60;;;11.90;99.90;;;;;;5111245;28;20405;-65
2023/07/05 10:56:53;;;;;;;11.57;3.08;;;11.90;99.90;;;;;;5144391;27;20039;-65
2023/07/05 10:59:25;;;;;;;11.65;3.13;;;11.90;99.90;;;;;;5144015;27;20043;-66
2023/07/05 11:02:09;;;;;;;12.52;3.22;;;11.90;99.90;;;;;;5092956;28;20028;-67
2023/07/05 11:04:36;;;;;;;8.20;2.80;;;11.80;99.90;;;;;;5143928;27;20050;-65
2023/07/05 11:07:10;;;;;;;7.47;3.83;;;11.80;99.90;;;;;;5076048;28;20079;-65
2023/07/05 11:09:37;;;;;;;12.10;3.70;;;11.80;99.90;;;;;;5144142;27;20046;-65
2023/07/05 11:12:13;;;;;;;6.32;3.33;;;11.80;99.90;;;;;;5093002;28;20048;-66
2023/07/05 11:14:39;;;;;;;12.27;3.83;;;11.80;99.90;;;;;;5143758;27;20054;-65
2023/07/05 11:17:11;;;;;;;10.90;3.53;;;11.80;99.90;;;;;;5075862;28;20481;-65
2023/07/05 11:19:38;;;;;;;9.50;3.35;;;11.70;99.90;;;;;;5076201;28;20497;-69
2023/07/05 11:22:04;;;;;;;10.18;4.00;;;11.80;99.90;;;;;;5126967;27;20042;-66
2023/07/05 11:24:45;;;;;;;8.95;3.50;;;11.70;99.90;;;;;;5092489;28;20051;-66
2023/07/05 11:27:23;;;;;;;10.63;3.90;;;11.70;99.90;;;;;;5092306;28;20504;-66
2023/07/05 11:29:54;;;;;;;8.50;3.40;;;11.70;99.90;;;;;;5092244;28;20046;-68
2023/07/05 11:32:22;;;;;;;8.88;3.33;;;11.70;99.90;;;;;;5092752;28;20047;-65
2023/07/05 11:34:52;;;;;;;8.30;3.50;;;11.60;99.90;;;;;;5144104;27;20039;-66
2023/07/05 11:37:18;;;;;;;9.45;3.90;;;11.60;99.90;;;;;;5109530;28;20036;-65
2023/07/05 11:39:48;;;;;;;13.43;3.83;;;11.70;99.90;;;;;;5110693;28;20373;-65
2023/07/05 11:42:17;;;;;;;13.98;4.10;;;11.70;99.90;;;;;;5143738;27;20051;-65
2023/07/05 11:44:48;;;;;;;9.38;3.53;;;11.70;99.90;;;;;;5143981;27;20384;-66
2023/07/05 11:47:23;;;;;;;11.30;3.67;;;11.70;99.90;;;;;;5143702;27;20477;-66
2023/07/05 11:50:13;;;;;;;12.35;4.60;;;11.70;99.90;;;;;;5110214;28;20039;-65
2023/07/05 11:52:50;;;;;;;10.30;3.70;;;11.70;99.90;;;;;;5126524;27;20508;-66
2023/07/05 11:55:21;;;;;;;5.43;3.47;;;11.70;99.90;;;;;;5143741;27;20100;-67
2023/07/05 11:58:12;;;;;;;4.88;3.10;;;11.70;99.90;;;;;;5143390;27;20530;-66
2023/07/05 12:01:13;;;;;;;10.45;3.78;;;11.70;99.90;;;;;;5143677;27;20118;-66
2023/07/05 12:03:46;;;;;;;7.68;3.13;;;11.70;99.90;;;;;;5097252;27;20059;-65
2023/07/05 12:06:36;;;;;;;9.63;3.35;;;11.70;99.90;;;;;;5095876;28;20128;-68
2023/07/05 12:09:03;;;;;;;8.90;3.05;;;11.70;99.90;;;;;;5096054;28;20079;-65
2023/07/05 12:11:33;;;;;;;9.40;3.90;;;11.80;99.90;;;;;;5147114;27;20481;-66
2023/07/05 12:14:01;;;;;;;10.02;3.20;;;11.80;99.90;;;;;;5114319;28;20036;-66
2023/07/05 12:16:28;;;;;;;6.75;3.00;;;11.80;99.90;;;;;;5112861;28;20032;-66
2023/07/05 12:18:54;;;;;;;8.77;3.63;;;11.80;99.90;;;;;;5062480;28;20508;-65
2023/07/05 12:21:20;;;;;;;8.80;3.33;;;11.90;99.90;;;;;;5112692;28;20035;-65
2023/07/05 12:23:51;;;;;;;9.57;3.30;;;11.90;99.90;;;;;;5147037;27;20145;-65
2023/07/05 12:26:31;;;;;;;13.73;3.97;;;11.90;99.90;;;;;;5147222;27;20346;-66
2023/07/05 12:29:15;;;;;;;7.22;3.13;;;12.00;99.90;;;;;;5147194;27;20070;-65
2023/07/05 12:31:40;;;;;;;8.48;3.30;;;12.00;99.90;;;;;;5147038;27;20476;-64
2023/07/05 12:34:21;;;;;;;10.10;3.67;;;12.00;99.90;;;;;;5112470;28;20075;-65
2023/07/05 12:36:47;;;;;;;7.47;3.38;;;12.10;99.90;;;;;;5146715;27;20496;-65
2023/07/05 12:39:16;;;;;;;11.55;4.18;;;12.20;99.90;;;;;;5095355;28;20058;-65
2023/07/05 12:41:42;;;;;;;14.20;4.97;;;12.30;99.90;;;;;;5146437;27;20036;-66
2023/07/05 12:44:14;;;;;;;11.38;3.20;;;12.40;99.90;;;;;;5095687;28;20096;-67
2023/07/05 12:46:44;;;;;;;10.23;3.97;;;12.50;99.90;;;;;;5146682;27;20047;-66
2023/07/05 12:49:30;;;;;;;13.98;4.32;;;12.60;99.90;;;;;;5146574;27;20092;-65
2023/07/05 12:51:58;;;;;;;10.98;3.90;;;12.70;99.90;;;;;;5146150;27;20052;-66
2023/07/05 12:54:25;;;;;;;10.95;3.95;;;12.80;99.90;;;;;;5095068;28;20477;-66